To NAV CANADA Home Page Login to a new session Search on AWWS site Feedback and Comments Disclaimer Vers la page française équivalente Tips FAQ What's new on the site To the Forecasts and Observations / NOTAM section To "File a Flight Plan" website Publications and other links Update of the User's profile FIC Telephone Numbers My Weather Data Folder Route Weather Data Regional Weather Data Local Weather Data To the Forecasts and Observations / NOTAM section
Request Generated 04/24/2014 at 01:29:28 UTC . Weather information available at that time is displayed.

METAR/TAF

HOPE/BC    (show WxCam)

METAR CYHE 240100Z AUTO VRB02KT 9SM CLR 13/05 A2978 RMK SLP085=
METAR CYHE 240000Z AUTO 19005KT 170V260 9SM FEW090 SCT110 12/05 A2981
RMK SLP097=
SPECI CYHE 232341Z AUTO 26007KT 240V010 9SM FEW055 SCT070 BKN089
BKN110 13/05 A2982 RMK SLP100=
SPECI CYHE 232316Z AUTO 28013G19KT 9SM -RA FEW045 SCT055 OVC073 11/05
A2983 RMK SLP103=
SPECI CYHE 232310Z AUTO 28011G18KT 9SM FEW045 SCT060 OVC077 12/04
A2983 RMK SLP103=
METAR CYHE 232300Z AUTO 28009G18KT 250V320 9SM -RA FEW048 SCT060
OVC083 12/04 A2983 RMK SLP103=

CYHE - No TAF is issued for this station

Your time UTC time
Weather data provided by Environment Canada and NAV CANADA